Memphis, TN (38132)

3:06 AM CDT on August 01, 2015 (GMT -0500)
Memphis International | | Change Station
CLOSE
Current Station
Airport
Location: Memphis,
Elevation: 331 ft
Nearby Weather Stations

Elev 331 ft 35.06 °N, 89.99 °W | Updated 12 minutes ago

Scattered Clouds
Scattered Clouds
76 °F
Feels Like 76 °F
N
5
Wind Variable Wind from North

Today
High -- | Low -- °F
--% Chance of Precip.
Yesterday
High -- | Low -- °F
Precip. -- in
6:09 AM 8:02 PM
Full, 99% visible
Pressure 30.00 in
Visibility 10.0 miles
Clouds Scattered Clouds 25000 ft
Dew Point 65 °F
Humidity 69%
Rainfall 0.00 in
Snow Depth Not available.
UV 0 out of 12
Pollen 6.20 out of 12
Air Quality Not available.
Flu Activity Not available.
METAR KMEM 010754Z 36004KT 10SM SCT250 24/18 A3001 RMK AO2 SLP158 T02440183

More Conditions Fewer Conditions

Pressure 30.00 in
Visibility 10.0 miles
Clouds Scattered Clouds 25000 ft
Dew Point 65 °F
Humidity 69%
Rainfall 0.00 in
Snow Depth Not available.
UV 0 out of 12
Pollen 6.20 out of 12
Air Quality Not available.
Flu Activity Not available.
METAR KMEM 010754Z 36004KT 10SM SCT250 24/18 A3001 RMK AO2 SLP158 T02440183

More Conditions Fewer Conditions

10-Day Weather Forecast

×

Almanac

Astronomy

Aug. 01, 2015 Rise Set
Actual Time
Civil Twilight
Nautical Twilight
Astronomical Twilight
Moon
Length of Visible Light
Length of Day
Tomorrow will be .
, % of the Moon is Illuminated

Today's Extremes

State Highs State Lows

Community

WunderPhotos

Upload Photos

1,842,905 photos uploaded!

WunderBlogs® & News

Nearby

Air Quality

  Air Quality AQ Index Pollutant
Not available.

Snow Depth

Station Depth Elevation

Earthquake Activity

City Distance Mag. Time & Date
Minimum magnitude displayed is 2.5.

Coastal Water Temperatures

Place Temperature

Stations

Nearby Weather Stations

Station Location Temp. Windchill Dew Point Humidity Wind Precip. Elev Updated Type